sensor_id;sensor_type;location;lat;lon;timestamp;pressure;altitude;pressure_sealevel;temperature;humidity
41703;BME280;861;48.808;9.006;2023-03-01T00:01:39;97810.31;;;3.27;58.37
41703;BME280;861;48.808;9.006;2023-03-01T00:04:06;97818.84;;;3.20;58.30
41703;BME280;861;48.808;9.006;2023-03-01T00:06:32;97814.59;;;3.19;58.23
41703;BME280;861;48.808;9.006;2023-03-01T00:08:58;97823.47;;;3.02;59.21
41703;BME280;861;48.808;9.006;2023-03-01T00:11:30;97822.81;;;3.14;58.38
41703;BME280;861;48.808;9.006;2023-03-01T00:14:02;97815.41;;;3.02;58.62
41703;BME280;861;48.808;9.006;2023-03-01T00:16:43;97814.44;;;2.90;59.80
41703;BME280;861;48.808;9.006;2023-03-01T00:19:19;97819.66;;;2.95;59.41
41703;BME280;861;48.808;9.006;2023-03-01T00:21:48;97809.41;;;3.05;58.84
41703;BME280;861;48.808;9.006;2023-03-01T00:24:15;97820.28;;;2.92;59.47
41703;BME280;861;48.808;9.006;2023-03-01T00:26:42;97818.25;;;2.80;59.46
41703;BME280;861;48.808;9.006;2023-03-01T00:29:08;97813.19;;;2.87;59.54
41703;BME280;861;48.808;9.006;2023-03-01T00:31:35;97813.03;;;2.92;59.19
41703;BME280;861;48.808;9.006;2023-03-01T00:34:05;97823.63;;;2.89;59.41
41703;BME280;861;48.808;9.006;2023-03-01T00:36:36;97810.50;;;2.87;59.13
41703;BME280;861;48.808;9.006;2023-03-01T00:39:11;97816.81;;;2.74;60.27
41703;BME280;861;48.808;9.006;2023-03-01T00:41:39;97827.44;;;2.71;60.29
41703;BME280;861;48.808;9.006;2023-03-01T00:44:06;97823.13;;;2.61;60.33
41703;BME280;861;48.808;9.006;2023-03-01T00:46:32;97816.50;;;2.76;59.53
41703;BME280;861;48.808;9.006;2023-03-01T00:48:59;97816.97;;;2.78;59.77
41703;BME280;861;48.808;9.006;2023-03-01T00:51:29;97815.06;;;2.87;59.53
41703;BME280;861;48.808;9.006;2023-03-01T00:54:01;97812.22;;;2.75;59.59
41703;BME280;861;48.808;9.006;2023-03-01T00:56:29;97801.47;;;2.66;60.19
41703;BME280;861;48.808;9.006;2023-03-01T00:58:56;97812.88;;;2.72;60.26
41703;BME280;861;48.808;9.006;2023-03-01T01:01:28;97819.97;;;2.68;60.43
41703;BME280;861;48.808;9.006;2023-03-01T01:04:03;97819.50;;;2.83;60.01
41703;BME280;861;48.808;9.006;2023-03-01T01:06:42;97802.09;;;2.72;59.46
41703;BME280;861;48.808;9.006;2023-03-01T01:09:17;97803.06;;;2.67;59.97
41703;BME280;861;48.808;9.006;2023-03-01T01:11:50;97800.53;;;2.71;60.10
41703;BME280;861;48.808;9.006;2023-03-01T01:14:18;97801.31;;;2.54;60.45
41703;BME280;861;48.808;9.006;2023-03-01T01:16:45;97799.72;;;2.53;60.76
41703;BME280;861;48.808;9.006;2023-03-01T01:19:13;97801.13;;;2.68;59.71
41703;BME280;861;48.808;9.006;2023-03-01T01:21:40;97799.09;;;2.73;59.03
41703;BME280;861;48.808;9.006;2023-03-01T01:24:09;97800.03;;;2.60;60.21
41703;BME280;861;48.808;9.006;2023-03-01T01:26:36;97796.41;;;2.56;60.20
41703;BME280;861;48.808;9.006;2023-03-01T01:29:04;97791.63;;;2.28;60.80
41703;BME280;861;48.808;9.006;2023-03-01T01:31:35;97792.25;;;2.33;60.96
41703;BME280;861;48.808;9.006;2023-03-01T01:34:07;97792.56;;;2.32;60.81
41703;BME280;861;48.808;9.006;2023-03-01T01:36:38;97791.31;;;2.46;60.46
41703;BME280;861;48.808;9.006;2023-03-01T01:39:04;97783.25;;;2.46;60.83
41703;BME280;861;48.808;9.006;2023-03-01T01:41:31;97778.41;;;2.57;60.54
41703;BME280;861;48.808;9.006;2023-03-01T01:44:27;97776.81;;;2.47;61.01
41703;BME280;861;48.808;9.006;2023-03-01T01:47:05;97776.00;;;2.55;60.21
41703;BME280;861;48.808;9.006;2023-03-01T01:49:55;97772.03;;;2.44;60.89
41703;BME280;861;48.808;9.006;2023-03-01T01:52:37;97768.75;;;2.47;60.37
41703;BME280;861;48.808;9.006;2023-03-01T01:55:14;97771.75;;;2.63;59.97
41703;BME280;861;48.808;9.006;2023-03-01T01:57:56;97767.78;;;2.60;60.22
41703;BME280;861;48.808;9.006;2023-03-01T02:00:30;97763.53;;;2.59;60.01
41703;BME280;861;48.808;9.006;2023-03-01T02:03:09;97759.72;;;2.52;60.65
41703;BME280;861;48.808;9.006;2023-03-01T02:06:29;97765.25;;;2.47;60.46
41703;BME280;861;48.808;9.006;2023-03-01T02:09:13;97761.75;;;2.46;60.59
41703;BME280;861;48.808;9.006;2023-03-01T02:11:44;97757.81;;;2.44;60.46
41703;BME280;861;48.808;9.006;2023-03-01T02:14:11;97757.97;;;2.56;60.06
41703;BME280;861;48.808;9.006;2023-03-01T02:16:37;97752.44;;;2.44;60.32
41703;BME280;861;48.808;9.006;2023-03-01T02:19:07;97754.22;;;2.57;59.92
41703;BME280;861;48.808;9.006;2023-03-01T02:22:14;97747.06;;;2.52;60.26
41703;BME280;861;48.808;9.006;2023-03-01T02:25:44;97744.56;;;2.47;60.53
41703;BME280;861;48.808;9.006;2023-03-01T02:28:29;97732.22;;;2.55;60.37
41703;BME280;861;48.808;9.006;2023-03-01T02:30:58;97732.84;;;2.52;60.32
41703;BME280;861;48.808;9.006;2023-03-01T02:33:45;97723.34;;;2.29;60.79
41703;BME280;861;48.808;9.006;2023-03-01T02:36:26;97728.41;;;2.39;60.70
41703;BME280;861;48.808;9.006;2023-03-01T02:39:04;97718.78;;;2.38;61.23
41703;BME280;861;48.808;9.006;2023-03-01T02:41:38;97720.34;;;2.22;62.11
41703;BME280;861;48.808;9.006;2023-03-01T02:44:06;97719.41;;;2.26;61.87
41703;BME280;861;48.808;9.006;2023-03-01T02:46:32;97714.66;;;2.40;61.88
41703;BME280;861;48.808;9.006;2023-03-01T02:48:59;97715.00;;;2.47;61.10
41703;BME280;861;48.808;9.006;2023-03-01T02:55:13;97710.88;;;2.58;61.78
41703;BME280;861;48.808;9.006;2023-03-01T02:57:46;97704.38;;;2.59;61.09
41703;BME280;861;48.808;9.006;2023-03-01T03:00:28;97710.38;;;2.65;60.86
41703;BME280;861;48.808;9.006;2023-03-01T03:03:01;97701.69;;;2.59;61.00
41703;BME280;861;48.808;9.006;2023-03-01T03:05:31;97702.66;;;2.55;61.27
41703;BME280;861;48.808;9.006;2023-03-01T03:08:02;97692.06;;;2.58;61.24
41703;BME280;861;48.808;9.006;2023-03-01T03:10:35;97700.91;;;2.59;60.85
41703;BME280;861;48.808;9.006;2023-03-01T03:13:13;97699.00;;;2.59;61.53
41703;BME280;861;48.808;9.006;2023-03-01T03:15:42;97692.38;;;2.57;61.57
41703;BME280;861;48.808;9.006;2023-03-01T03:18:16;97693.31;;;2.52;61.57
41703;BME280;861;48.808;9.006;2023-03-01T03:20:44;97693.47;;;2.56;62.07
41703;BME280;861;48.808;9.006;2023-03-01T03:23:13;97682.25;;;2.37;62.40
41703;BME280;861;48.808;9.006;2023-03-01T03:25:39;97682.44;;;2.49;62.07
41703;BME280;861;48.808;9.006;2023-03-01T03:28:07;97681.00;;;2.60;62.02
41703;BME280;861;48.808;9.006;2023-03-01T03:30:40;97684.13;;;2.62;61.80
41703;BME280;861;48.808;9.006;2023-03-01T03:33:11;97673.84;;;2.64;61.59
41703;BME280;861;48.808;9.006;2023-03-01T03:35:48;97683.03;;;2.54;62.12
41703;BME280;861;48.808;9.006;2023-03-01T03:38:19;97679.41;;;2.59;62.10
41703;BME280;861;48.808;9.006;2023-03-01T03:41:00;97677.50;;;2.51;62.26
41703;BME280;861;48.808;9.006;2023-03-01T03:43:36;97682.41;;;2.57;62.25
41703;BME280;861;48.808;9.006;2023-03-01T03:46:04;97678.28;;;2.68;62.30
41703;BME280;861;48.808;9.006;2023-03-01T03:48:41;97682.38;;;2.74;61.72
41703;BME280;861;48.808;9.006;2023-03-01T03:51:15;97682.09;;;2.59;62.43
41703;BME280;861;48.808;9.006;2023-03-01T03:53:44;97680.16;;;2.76;62.45
41703;BME280;861;48.808;9.006;2023-03-01T03:56:12;97686.19;;;2.48;63.08
41703;BME280;861;48.808;9.006;2023-03-01T03:58:38;97674.97;;;2.63;62.32
41703;BME280;861;48.808;9.006;2023-03-01T04:01:06;97673.84;;;2.72;62.10
41703;BME280;861;48.808;9.006;2023-03-01T04:03:33;97669.72;;;2.75;62.60
41703;BME280;861;48.808;9.006;2023-03-01T04:06:03;97667.38;;;2.82;62.62
41703;BME280;861;48.808;9.006;2023-03-01T04:08:31;97659.28;;;2.82;62.60
41703;BME280;861;48.808;9.006;2023-03-01T04:11:03;97658.78;;;2.88;61.94
41703;BME280;861;48.808;9.006;2023-03-01T04:13:54;97657.84;;;2.93;62.47
41703;BME280;861;48.808;9.006;2023-03-01T04:16:23;97655.09;;;3.01;61.85
41703;BME280;861;48.808;9.006;2023-03-01T04:18:50;97651.34;;;2.94;61.90
41703;BME280;861;48.808;9.006;2023-03-01T04:21:16;97657.53;;;2.86;62.18
41703;BME280;861;48.808;9.006;2023-03-01T04:23:45;97648.16;;;3.00;61.82
41703;BME280;861;48.808;9.006;2023-03-01T04:26:12;97654.28;;;3.18;61.53
41703;BME280;861;48.808;9.006;2023-03-01T04:28:42;97647.53;;;3.03;61.31
41703;BME280;861;48.808;9.006;2023-03-01T04:31:20;97652.94;;;2.86;62.41
41703;BME280;861;48.808;9.006;2023-03-01T04:33:53;97640.16;;;2.83;61.91
41703;BME280;861;48.808;9.006;2023-03-01T04:36:26;97638.88;;;2.81;62.70
41703;BME280;861;48.808;9.006;2023-03-01T04:38:55;97647.25;;;2.88;62.26
41703;BME280;861;48.808;9.006;2023-03-01T04:41:24;97644.84;;;2.95;62.30
41703;BME280;861;48.808;9.006;2023-03-01T04:43:51;97642.78;;;2.92;61.68
41703;BME280;861;48.808;9.006;2023-03-01T04:46:20;97647.84;;;2.93;62.28
41703;BME280;861;48.808;9.006;2023-03-01T04:48:48;97646.84;;;3.15;61.96
41703;BME280;861;48.808;9.006;2023-03-01T04:51:15;97642.78;;;3.00;61.95
41703;BME280;861;48.808;9.006;2023-03-01T04:53:43;97653.22;;;3.02;62.53
41703;BME280;861;48.808;9.006;2023-03-01T04:56:10;97653.88;;;2.90;62.32
41703;BME280;861;48.808;9.006;2023-03-01T04:58:39;97652.47;;;2.93;62.45
41703;BME280;861;48.808;9.006;2023-03-01T05:01:16;97642.38;;;2.73;62.69
41703;BME280;861;48.808;9.006;2023-03-01T05:03:54;97648.88;;;2.72;63.10
41703;BME280;861;48.808;9.006;2023-03-01T05:06:21;97648.81;;;2.97;62.43
41703;BME280;861;48.808;9.006;2023-03-01T05:08:48;97649.44;;;2.94;62.41
41703;BME280;861;48.808;9.006;2023-03-01T05:11:14;97652.47;;;2.76;62.60
41703;BME280;861;48.808;9.006;2023-03-01T05:13:41;97652.78;;;2.83;62.89
41703;BME280;861;48.808;9.006;2023-03-01T05:16:09;97648.69;;;2.77;62.94
41703;BME280;861;48.808;9.006;2023-03-01T05:18:37;97642.97;;;2.87;63.26
41703;BME280;861;48.808;9.006;2023-03-01T05:21:10;97647.63;;;2.69;62.95
41703;BME280;861;48.808;9.006;2023-03-01T05:23:38;97636.31;;;2.93;63.12
41703;BME280;861;48.808;9.006;2023-03-01T05:26:08;97637.63;;;2.78;63.41
41703;BME280;861;48.808;9.006;2023-03-01T05:28:35;97635.53;;;2.84;63.60
41703;BME280;861;48.808;9.006;2023-03-01T05:31:01;97645.31;;;2.97;62.47
41703;BME280;861;48.808;9.006;2023-03-01T05:33:28;97634.56;;;2.97;63.08
41703;BME280;861;48.808;9.006;2023-03-01T05:35:54;97638.59;;;2.74;63.42
41703;BME280;861;48.808;9.006;2023-03-01T05:38:25;97636.50;;;2.88;63.40
41703;BME280;861;48.808;9.006;2023-03-01T05:40:51;97640.41;;;2.99;63.22
41703;BME280;861;48.808;9.006;2023-03-01T05:43:18;97649.25;;;2.99;63.02
41703;BME280;861;48.808;9.006;2023-03-01T05:45:45;97642.78;;;3.00;63.27
41703;BME280;861;48.808;9.006;2023-03-01T05:48:13;97648.50;;;2.99;62.78
41703;BME280;861;48.808;9.006;2023-03-01T05:50:45;97645.88;;;3.20;61.54
41703;BME280;861;48.808;9.006;2023-03-01T05:53:19;97650.25;;;2.86;62.72
41703;BME280;861;48.808;9.006;2023-03-01T05:55:48;97642.47;;;3.02;62.41
41703;BME280;861;48.808;9.006;2023-03-01T05:58:19;97642.78;;;2.92;62.18
41703;BME280;861;48.808;9.006;2023-03-01T06:00:49;97639.81;;;2.85;62.91
41703;BME280;861;48.808;9.006;2023-03-01T06:03:17;97635.44;;;2.72;62.94
41703;BME280;861;48.808;9.006;2023-03-01T06:05:44;97632.66;;;2.97;61.91
41703;BME280;861;48.808;9.006;2023-03-01T06:08:13;97629.94;;;2.60;63.81
41703;BME280;861;48.808;9.006;2023-03-01T06:10:40;97625.63;;;2.59;63.72
41703;BME280;861;48.808;9.006;2023-03-01T06:13:07;97631.78;;;2.68;63.53
41703;BME280;861;48.808;9.006;2023-03-01T06:15:39;97627.06;;;2.48;64.72
41703;BME280;861;48.808;9.006;2023-03-01T06:18:05;97634.63;;;2.71;63.65
41703;BME280;861;48.808;9.006;2023-03-01T06:20:31;97639.81;;;2.85;62.54
41703;BME280;861;48.808;9.006;2023-03-01T06:22:58;97641.94;;;2.37;64.58
41703;BME280;861;48.808;9.006;2023-03-01T06:25:26;97636.22;;;2.72;62.96
41703;BME280;861;48.808;9.006;2023-03-01T06:27:54;97645.56;;;2.58;63.85
41703;BME280;861;48.808;9.006;2023-03-01T06:30:24;97640.22;;;2.15;65.53
41703;BME280;861;48.808;9.006;2023-03-01T06:32:52;97641.34;;;2.31;65.03
41703;BME280;861;48.808;9.006;2023-03-01T06:35:27;97644.66;;;2.28;64.45
41703;BME280;861;48.808;9.006;2023-03-01T06:37:57;97639.25;;;2.37;64.63
41703;BME280;861;48.808;9.006;2023-03-01T06:40:25;97634.53;;;2.34;64.14
41703;BME280;861;48.808;9.006;2023-03-01T06:42:51;97634.84;;;2.41;64.58
41703;BME280;861;48.808;9.006;2023-03-01T06:45:20;97626.63;;;2.29;64.84
41703;BME280;861;48.808;9.006;2023-03-01T06:47:48;97623.94;;;2.12;65.46
41703;BME280;861;48.808;9.006;2023-03-01T06:50:16;97631.38;;;2.15;65.68
41703;BME280;861;48.808;9.006;2023-03-01T06:52:43;97632.16;;;2.41;64.15
41703;BME280;861;48.808;9.006;2023-03-01T06:55:13;97624.56;;;2.26;64.81
41703;BME280;861;48.808;9.006;2023-03-01T06:57:39;97624.56;;;2.09;65.18
41703;BME280;861;48.808;9.006;2023-03-01T07:00:07;97628.84;;;2.44;64.24
41703;BME280;861;48.808;9.006;2023-03-01T07:02:33;97641.31;;;2.23;65.04
41703;BME280;861;48.808;9.006;2023-03-01T07:05:00;97634.22;;;2.18;65.40
41703;BME280;861;48.808;9.006;2023-03-01T07:07:26;97633.91;;;2.20;64.88
41703;BME280;861;48.808;9.006;2023-03-01T07:09:52;97631.69;;;2.13;65.20
41703;BME280;861;48.808;9.006;2023-03-01T07:12:19;97632.31;;;2.10;65.64
41703;BME280;861;48.808;9.006;2023-03-01T07:14:45;97625.50;;;2.38;64.22
41703;BME280;861;48.808;9.006;2023-03-01T07:17:11;97619.19;;;2.51;63.51
41703;BME280;861;48.808;9.006;2023-03-01T07:19:37;97624.41;;;2.39;63.92
41703;BME280;861;48.808;9.006;2023-03-01T07:22:04;97628.34;;;2.42;63.32
41703;BME280;861;48.808;9.006;2023-03-01T07:24:34;97614.44;;;2.40;64.05
41703;BME280;861;48.808;9.006;2023-03-01T07:27:00;97615.09;;;2.28;64.01
41703;BME280;861;48.808;9.006;2023-03-01T07:29:26;97612.91;;;2.22;64.55
41703;BME280;861;48.808;9.006;2023-03-01T07:31:54;97616.50;;;2.26;64.59
41703;BME280;861;48.808;9.006;2023-03-01T07:34:20;97614.63;;;2.35;64.10
41703;BME280;861;48.808;9.006;2023-03-01T07:36:46;97614.47;;;2.14;64.97
41703;BME280;861;48.808;9.006;2023-03-01T07:39:13;97609.06;;;2.40;64.56
41703;BME280;861;48.808;9.006;2023-03-01T07:41:39;97595.38;;;2.79;62.85
41703;BME280;861;48.808;9.006;2023-03-01T07:44:05;97607.09;;;2.74;63.22
41703;BME280;861;48.808;9.006;2023-03-01T07:46:32;97596.97;;;2.80;62.55
41703;BME280;861;48.808;9.006;2023-03-01T07:48:59;97599.44;;;2.47;64.06
41703;BME280;861;48.808;9.006;2023-03-01T07:51:25;97599.41;;;2.56;64.38
41703;BME280;861;48.808;9.006;2023-03-01T07:53:51;97601.78;;;2.57;64.40
41703;BME280;861;48.808;9.006;2023-03-01T07:56:18;97597.78;;;2.80;63.46
41703;BME280;861;48.808;9.006;2023-03-01T07:58:45;97587.19;;;3.13;62.23
41703;BME280;861;48.808;9.006;2023-03-01T08:01:17;97585.03;;;2.98;62.61
41703;BME280;861;48.808;9.006;2023-03-01T08:03:45;97584.09;;;3.02;62.46
41703;BME280;861;48.808;9.006;2023-03-01T08:06:15;97581.28;;;2.90;62.89
41703;BME280;861;48.808;9.006;2023-03-01T08:08:43;97579.91;;;3.13;62.95
41703;BME280;861;48.808;9.006;2023-03-01T08:11:14;97584.78;;;3.20;62.79
41703;BME280;861;48.808;9.006;2023-03-01T08:13:41;97585.22;;;3.31;62.24
41703;BME280;861;48.808;9.006;2023-03-01T08:16:14;97580.88;;;3.38;61.26
41703;BME280;861;48.808;9.006;2023-03-01T08:18:42;97587.84;;;3.39;61.61
41703;BME280;861;48.808;9.006;2023-03-01T08:21:17;97585.16;;;2.72;64.15
41703;BME280;861;48.808;9.006;2023-03-01T08:23:44;97582.34;;;2.98;63.82
41703;BME280;861;48.808;9.006;2023-03-01T08:26:20;97580.25;;;3.41;62.31
41703;BME280;861;48.808;9.006;2023-03-01T08:28:49;97583.00;;;3.53;62.14
41703;BME280;861;48.808;9.006;2023-03-01T08:31:28;97587.84;;;3.68;61.47
41703;BME280;861;48.808;9.006;2023-03-01T08:34:02;97575.94;;;3.90;60.67
41703;BME280;861;48.808;9.006;2023-03-01T08:36:37;97583.78;;;3.83;60.73
41703;BME280;861;48.808;9.006;2023-03-01T08:39:09;97574.38;;;3.89;60.55
41703;BME280;861;48.808;9.006;2023-03-01T08:41:38;97569.41;;;4.11;60.24
41703;BME280;861;48.808;9.006;2023-03-01T08:44:08;97568.00;;;3.93;60.29
41703;BME280;861;48.808;9.006;2023-03-01T08:46:42;97573.19;;;3.78;60.45
41703;BME280;861;48.808;9.006;2023-03-01T08:49:14;97574.19;;;4.14;60.28
41703;BME280;861;48.808;9.006;2023-03-01T08:51:47;97565.63;;;4.12;60.49
41703;BME280;861;48.808;9.006;2023-03-01T08:54:19;97564.34;;;4.30;60.13
41703;BME280;861;48.808;9.006;2023-03-01T08:56:47;97568.47;;;4.60;59.70
41703;BME280;861;48.808;9.006;2023-03-01T08:59:17;97568.19;;;4.98;57.82
41703;BME280;861;48.808;9.006;2023-03-01T09:01:43;97561.03;;;5.02;58.08
41703;BME280;861;48.808;9.006;2023-03-01T09:04:12;97561.16;;;5.42;56.47
41703;BME280;861;48.808;9.006;2023-03-01T09:06:40;97554.28;;;5.32;56.32
41703;BME280;861;48.808;9.006;2023-03-01T09:09:13;97547.06;;;5.12;57.60
41703;BME280;861;48.808;9.006;2023-03-01T09:11:42;97545.16;;;5.01;58.42
41703;BME280;861;48.808;9.006;2023-03-01T09:14:12;97550.78;;;4.96;58.09
41703;BME280;861;48.808;9.006;2023-03-01T09:16:39;97550.22;;;5.02;58.63
41703;BME280;861;48.808;9.006;2023-03-01T09:19:05;97540.09;;;5.59;56.29
41703;BME280;861;48.808;9.006;2023-03-01T09:21:32;97539.81;;;5.76;56.17
41703;BME280;861;48.808;9.006;2023-03-01T09:23:58;97534.28;;;5.85;56.69
41703;BME280;861;48.808;9.006;2023-03-01T09:26:25;97524.97;;;6.10;54.84
41703;BME280;861;48.808;9.006;2023-03-01T09:28:55;97524.50;;;5.92;55.84
41703;BME280;861;48.808;9.006;2023-03-01T09:31:24;97517.38;;;6.00;55.52
41703;BME280;861;48.808;9.006;2023-03-01T09:33:53;97529.91;;;6.20;55.29
41703;BME280;861;48.808;9.006;2023-03-01T09:36:24;97522.44;;;6.01;55.16
41703;BME280;861;48.808;9.006;2023-03-01T09:38:53;97520.53;;;5.90;55.76
41703;BME280;861;48.808;9.006;2023-03-01T09:44:49;97521.38;;;6.06;55.11
41703;BME280;861;48.808;9.006;2023-03-01T09:47:26;97519.00;;;6.32;55.37
41703;BME280;861;48.808;9.006;2023-03-01T09:50:13;97523.25;;;6.61;54.22
41703;BME280;861;48.808;9.006;2023-03-01T09:52:59;97518.41;;;6.39;53.87
41703;BME280;861;48.808;9.006;2023-03-01T09:56:05;97513.84;;;6.86;52.44
41703;BME280;861;48.808;9.006;2023-03-01T10:02:43;97516.28;;;6.91;53.65
41703;BME280;861;48.808;9.006;2023-03-01T10:08:58;97507.81;;;6.92;53.42
41703;BME280;861;48.808;9.006;2023-03-01T10:11:39;97501.00;;;6.67;52.45
41703;BME280;861;48.808;9.006;2023-03-01T10:14:38;97497.78;;;6.93;52.12
41703;BME280;861;48.808;9.006;2023-03-01T10:18:14;97492.97;;;7.52;51.66
41703;BME280;861;48.808;9.006;2023-03-01T10:21:00;97485.28;;;7.54;51.44
41703;BME280;861;48.808;9.006;2023-03-01T10:23:34;97486.50;;;7.95;52.38
41703;BME280;861;48.808;9.006;2023-03-01T10:26:38;97479.53;;;8.13;50.97
41703;BME280;861;48.808;9.006;2023-03-01T10:29:14;97481.88;;;8.33;50.16
41703;BME280;861;48.808;9.006;2023-03-01T10:31:52;97477.88;;;8.08;50.07
41703;BME280;861;48.808;9.006;2023-03-01T10:34:28;97477.22;;;8.34;50.48
41703;BME280;861;48.808;9.006;2023-03-01T10:37:12;97469.84;;;8.76;49.30
41703;BME280;861;48.808;9.006;2023-03-01T10:40:07;97471.63;;;8.91;49.56
41703;BME280;861;48.808;9.006;2023-03-01T10:42:49;97467.44;;;8.71;50.06
41703;BME280;861;48.808;9.006;2023-03-01T10:45:37;97469.00;;;9.20;47.96
41703;BME280;861;48.808;9.006;2023-03-01T10:48:25;97462.22;;;8.62;49.11
41703;BME280;861;48.808;9.006;2023-03-01T10:53:42;97459.91;;;9.36;48.01
41703;BME280;861;48.808;9.006;2023-03-01T10:56:15;97458.59;;;9.52;48.18
41703;BME280;861;48.808;9.006;2023-03-01T10:59:02;97461.28;;;9.52;48.02
41703;BME280;861;48.808;9.006;2023-03-01T11:01:34;97470.88;;;9.16;47.28
41703;BME280;861;48.808;9.006;2023-03-01T11:06:39;97441.78;;;9.17;48.17
41703;BME280;861;48.808;9.006;2023-03-01T11:09:24;97441.69;;;9.66;48.17
41703;BME280;861;48.808;9.006;2023-03-01T11:11:57;97428.22;;;9.76;47.57
41703;BME280;861;48.808;9.006;2023-03-01T11:14:49;97414.91;;;10.01;46.46
41703;BME280;861;48.808;9.006;2023-03-01T11:17:31;97424.63;;;9.69;48.42
41703;BME280;861;48.808;9.006;2023-03-01T11:29:53;97407.22;;;10.46;46.47
41703;BME280;861;48.808;9.006;2023-03-01T11:32:40;97404.28;;;10.62;45.49
41703;BME280;861;48.808;9.006;2023-03-01T11:35:22;97391.50;;;10.69;45.69
41703;BME280;861;48.808;9.006;2023-03-01T11:40:45;97373.94;;;10.63;44.95
41703;BME280;861;48.808;9.006;2023-03-01T11:50:17;97373.50;;;11.16;44.44
41703;BME280;861;48.808;9.006;2023-03-01T12:03:26;97351.91;;;11.54;43.94
41703;BME280;861;48.808;9.006;2023-03-01T12:06:37;97348.13;;;11.83;43.92
41703;BME280;861;48.808;9.006;2023-03-01T12:09:58;97339.97;;;12.01;42.68
41703;BME280;861;48.808;9.006;2023-03-01T12:22:32;97313.47;;;12.01;42.64
41703;BME280;861;48.808;9.006;2023-03-01T12:25:49;97319.28;;;11.72;43.83
41703;BME280;861;48.808;9.006;2023-03-01T12:29:24;97304.53;;;12.22;42.07
41703;BME280;861;48.808;9.006;2023-03-01T12:32:22;97301.78;;;12.15;42.50
41703;BME280;861;48.808;9.006;2023-03-01T12:35:50;97296.31;;;11.94;42.94
41703;BME280;861;48.808;9.006;2023-03-01T12:38:50;97290.09;;;12.14;42.55
41703;BME280;861;48.808;9.006;2023-03-01T12:49:12;97280.34;;;12.13;43.06
41703;BME280;861;48.808;9.006;2023-03-01T12:51:59;97283.47;;;12.54;41.44
41703;BME280;861;48.808;9.006;2023-03-01T12:54:37;97274.50;;;12.47;42.63
41703;BME280;861;48.808;9.006;2023-03-01T12:57:40;97264.34;;;12.51;41.66
41703;BME280;861;48.808;9.006;2023-03-01T13:00:46;97256.13;;;12.68;40.61
41703;BME280;861;48.808;9.006;2023-03-01T13:10:39;97232.31;;;12.69;41.31
41703;BME280;861;48.808;9.006;2023-03-01T13:13:25;97236.97;;;12.75;41.76
41703;BME280;861;48.808;9.006;2023-03-01T13:15:54;97236.94;;;13.00;42.36
41703;BME280;861;48.808;9.006;2023-03-01T13:20:59;97235.75;;;13.04;41.57
41703;BME280;861;48.808;9.006;2023-03-01T13:23:37;97241.97;;;13.08;40.95
41703;BME280;861;48.808;9.006;2023-03-01T13:26:17;97229.16;;;12.84;42.60
41703;BME280;861;48.808;9.006;2023-03-01T13:33:55;97229.88;;;12.95;40.75
41703;BME280;861;48.808;9.006;2023-03-01T13:44:25;97238.97;;;12.64;40.85
41703;BME280;861;48.808;9.006;2023-03-01T13:47:17;97227.28;;;12.39;42.29
41703;BME280;861;48.808;9.006;2023-03-01T13:50:49;97228.41;;;12.63;42.43
41703;BME280;861;48.808;9.006;2023-03-01T13:53:25;97227.66;;;12.48;42.82
41703;BME280;861;48.808;9.006;2023-03-01T13:56:09;97227.66;;;12.55;42.49
41703;BME280;861;48.808;9.006;2023-03-01T14:01:35;97231.91;;;12.70;42.69
41703;BME280;861;48.808;9.006;2023-03-01T14:04:27;97220.59;;;12.79;42.20
41703;BME280;861;48.808;9.006;2023-03-01T14:07:22;97218.34;;;12.14;42.62
41703;BME280;861;48.808;9.006;2023-03-01T14:10:07;97223.78;;;12.24;43.67
41703;BME280;861;48.808;9.006;2023-03-01T14:16:53;97206.63;;;12.27;42.18
41703;BME280;861;48.808;9.006;2023-03-01T14:19:33;97208.22;;;11.93;43.16
41703;BME280;861;48.808;9.006;2023-03-01T14:22:26;97209.38;;;11.71;43.79
41703;BME280;861;48.808;9.006;2023-03-01T14:25:24;97221.84;;;11.83;44.52
41703;BME280;861;48.808;9.006;2023-03-01T14:30:51;97223.03;;;12.03;44.00
41703;BME280;861;48.808;9.006;2023-03-01T14:33:37;97222.25;;;12.27;43.06
41703;BME280;861;48.808;9.006;2023-03-01T14:36:12;97221.84;;;12.35;42.62
41703;BME280;861;48.808;9.006;2023-03-01T14:38:47;97229.25;;;12.24;43.44
41703;BME280;861;48.808;9.006;2023-03-01T14:41:27;97225.31;;;12.61;42.82
41703;BME280;861;48.808;9.006;2023-03-01T14:44:05;97231.56;;;12.58;41.89
41703;BME280;861;48.808;9.006;2023-03-01T14:46:45;97240.16;;;12.42;42.17
41703;BME280;861;48.808;9.006;2023-03-01T14:49:27;97247.56;;;12.45;42.92
41703;BME280;861;48.808;9.006;2023-03-01T14:52:21;97238.13;;;12.81;42.80
41703;BME280;861;48.808;9.006;2023-03-01T14:54:54;97235.50;;;12.39;42.52
41703;BME280;861;48.808;9.006;2023-03-01T14:57:27;97247.94;;;12.61;42.58
41703;BME280;861;48.808;9.006;2023-03-01T14:59:59;97244.81;;;12.63;42.92
41703;BME280;861;48.808;9.006;2023-03-01T15:02:34;97250.25;;;12.87;42.50
41703;BME280;861;48.808;9.006;2023-03-01T15:05:04;97243.91;;;13.18;41.80
41703;BME280;861;48.808;9.006;2023-03-01T15:07:40;97240.72;;;13.34;40.87
41703;BME280;861;48.808;9.006;2023-03-01T15:10:31;97243.06;;;13.28;41.12
41703;BME280;861;48.808;9.006;2023-03-01T15:13:26;97244.69;;;13.19;41.32
41703;BME280;861;48.808;9.006;2023-03-01T15:16:52;97245.53;;;12.91;41.66
41703;BME280;861;48.808;9.006;2023-03-01T15:19:05;97240.44;;;13.00;41.23
41703;BME280;861;48.808;9.006;2023-03-01T15:21:38;97249.44;;;12.87;41.77
41703;BME280;861;48.808;9.006;2023-03-01T15:26:53;97235.00;;;12.86;41.80
41703;BME280;861;48.808;9.006;2023-03-01T15:29:33;97239.38;;;12.49;42.41
41703;BME280;861;48.808;9.006;2023-03-01T15:32:36;97239.34;;;12.70;42.23
41703;BME280;861;48.808;9.006;2023-03-01T15:35:44;97247.97;;;12.12;42.28
41703;BME280;861;48.808;9.006;2023-03-01T15:38:56;97248.75;;;12.26;42.47
41703;BME280;861;48.808;9.006;2023-03-01T15:41:28;97242.16;;;12.10;43.26
41703;BME280;861;48.808;9.006;2023-03-01T15:44:00;97237.44;;;11.79;42.99
41703;BME280;861;48.808;9.006;2023-03-01T15:46:47;97236.59;;;11.57;43.68
41703;BME280;861;48.808;9.006;2023-03-01T15:49:42;97235.91;;;11.85;43.72
41703;BME280;861;48.808;9.006;2023-03-01T16:01:41;97225.28;;;11.59;44.28
41703;BME280;861;48.808;9.006;2023-03-01T16:05:00;97215.56;;;11.54;44.29
41703;BME280;861;48.808;9.006;2023-03-01T16:07:26;97211.25;;;11.50;43.78